createdAt,value
2018-11-22T00:02:06.074Z,101399.20
2018-11-22T00:07:01.539Z,101399.96
2018-11-22T00:11:56.598Z,101400.37
2018-11-22T00:16:51.241Z,101403.42
2018-11-22T00:21:46.030Z,101399.45
2018-11-22T00:26:40.774Z,101404.70
2018-11-22T00:31:35.748Z,101407.64
2018-11-22T00:36:30.628Z,101407.53
2018-11-22T00:41:25.334Z,101414.53
2018-11-22T00:46:20.317Z,101418.03
2018-11-22T00:51:15.275Z,101416.35
2018-11-22T00:56:10.305Z,101418.03
2018-11-22T01:01:05.405Z,101412.74
2018-11-22T01:06:00.592Z,101420.09
2018-11-22T01:10:55.786Z,101423.09
2018-11-22T01:15:50.661Z,101426.73
2018-11-22T01:20:45.817Z,101430.70
2018-11-22T01:25:40.553Z,101428.05
2018-11-22T01:30:35.543Z,101425.50
2018-11-22T01:35:30.435Z,101428.16
2018-11-22T01:40:25.818Z,101421.59
2018-11-22T01:45:24.712Z,101415.95
2018-11-22T01:50:19.937Z,101412.38
2018-11-22T01:55:16.168Z,101411.07
2018-11-22T02:00:17.557Z,101407.17
2018-11-22T02:05:17.457Z,101401.89
2018-11-22T02:10:13.518Z,101399.78
2018-11-22T02:15:11.773Z,101400.41
2018-11-22T02:20:10.378Z,101407.87
2018-11-22T02:25:05.472Z,101401.03
2018-11-22T02:30:00.164Z,101406.78
2018-11-22T02:34:54.847Z,101403.72
2018-11-22T02:39:49.525Z,101407.55
2018-11-22T02:44:44.167Z,101409.33
2018-11-22T02:49:38.844Z,101400.63
2018-11-22T02:54:33.488Z,101398.44
2018-11-22T02:59:28.158Z,101396.25
2018-11-22T03:04:22.827Z,101400.26
2018-11-22T03:09:17.518Z,101406.05
2018-11-22T03:14:12.146Z,101395.16
2018-11-22T03:19:07.047Z,101399.53
2018-11-22T03:24:02.021Z,101405.69
2018-11-22T03:28:56.724Z,101395.16
2018-11-22T03:33:51.396Z,101399.05
2018-11-22T03:38:46.089Z,101403.39
2018-11-22T03:43:40.757Z,101400.33
2018-11-22T03:48:35.430Z,101395.56
2018-11-22T03:53:30.074Z,101391.62
2018-11-22T03:58:24.736Z,101393.37
2018-11-22T04:03:19.485Z,101390.36
2018-11-22T04:08:14.158Z,101393.84
2018-11-22T04:13:08.822Z,101393.02
2018-11-22T04:18:03.565Z,101394.87
2018-11-22T04:22:58.242Z,101391.95
2018-11-22T04:27:52.883Z,101390.28
2018-11-22T04:32:48.076Z,101389.87
2018-11-22T04:37:43.123Z,101388.53
2018-11-22T04:42:37.820Z,101398.61
2018-11-22T04:47:32.495Z,101391.98
2018-11-22T04:52:27.201Z,101398.58
2018-11-22T04:57:21.883Z,101387.69
2018-11-22T05:02:16.579Z,101385.07
2018-11-22T05:07:11.264Z,101393.84
2018-11-22T05:12:06.468Z,101386.45
2018-11-22T05:17:01.173Z,101382.59
2018-11-22T05:21:56.000Z,101383.53
2018-11-22T05:26:50.761Z,101377.96
2018-11-22T05:31:45.435Z,101385.55
2018-11-22T05:36:40.136Z,101384.78
2018-11-22T05:41:34.793Z,101378.84
2018-11-22T05:46:29.476Z,101376.75
2018-11-22T05:51:24.222Z,101381.59
2018-11-22T05:56:18.902Z,101382.56
2018-11-22T06:01:16.369Z,101376.52
2018-11-22T06:06:08.215Z,101382.25
2018-11-22T06:11:02.849Z,101383.16
2018-11-22T06:15:57.533Z,101378.82
2018-11-22T06:20:52.254Z,101378.92
2018-11-22T06:25:46.986Z,101377.67
2018-11-22T06:30:41.780Z,101384.69
2018-11-22T06:35:36.476Z,101383.84
2018-11-22T06:40:31.119Z,101384.34
2018-11-22T06:45:27.159Z,101389.58
2018-11-22T06:50:22.750Z,101395.69
2018-11-22T06:55:18.909Z,101399.99
2018-11-22T07:00:16.571Z,101396.44
2018-11-22T07:05:11.956Z,101393.41
2018-11-22T07:10:08.325Z,101397.75
2018-11-22T07:15:03.139Z,101396.00
2018-11-22T07:19:57.786Z,101405.98
2018-11-22T07:24:52.571Z,101399.84
2018-11-22T07:29:48.451Z,101407.63
2018-11-22T07:34:43.361Z,101411.40
2018-11-22T07:39:37.999Z,101410.81
2018-11-22T07:44:32.712Z,101403.72
2018-11-22T07:49:27.350Z,101407.45
2018-11-22T07:54:22.061Z,101412.09
2018-11-22T07:59:18.740Z,101415.28
2018-11-22T08:04:13.521Z,101409.08
2018-11-22T08:09:10.042Z,101407.93
2018-11-22T08:14:04.886Z,101410.05
2018-11-22T08:19:00.269Z,101403.17
2018-11-22T08:23:55.090Z,101403.56
2018-11-22T08:28:49.723Z,101403.05
2018-11-22T08:33:44.377Z,101401.30
2018-11-22T08:38:39.012Z,101400.48
2018-11-22T08:43:34.025Z,101409.78
2018-11-22T08:48:28.665Z,101406.47
2018-11-22T08:53:23.483Z,101411.67
2018-11-22T08:58:18.225Z,101408.08
2018-11-22T09:03:12.886Z,101415.66
2018-11-22T09:08:07.574Z,101413.63
2018-11-22T09:13:02.999Z,101409.47
2018-11-22T09:17:57.733Z,101419.31
2018-11-22T09:22:52.423Z,101415.86
2018-11-22T09:27:47.250Z,101420.13
2018-11-22T09:32:42.350Z,101416.28
2018-11-22T09:37:36.970Z,101422.44
2018-11-22T09:42:31.693Z,101426.33
2018-11-22T09:47:26.561Z,101427.94
2018-11-22T09:52:21.649Z,101430.18
2018-11-22T09:57:16.270Z,101437.88
2018-11-22T10:02:11.066Z,101437.53
2018-11-22T10:07:06.260Z,101438.25
2018-11-22T10:12:00.935Z,101452.47
2018-11-22T10:16:55.813Z,101450.41
2018-11-22T10:21:50.454Z,101444.44
2018-11-22T10:26:45.079Z,101437.05
2018-11-22T10:31:39.880Z,101437.63
2018-11-22T10:36:34.850Z,101437.67
2018-11-22T10:41:29.898Z,101447.03
2018-11-22T10:46:24.818Z,101439.05
2018-11-22T10:51:19.485Z,101445.77
2018-11-22T10:56:14.132Z,101447.08
2018-11-22T11:01:26.417Z,101460.45
2018-11-22T11:06:48.988Z,101458.89
2018-11-22T11:11:43.629Z,101446.05
2018-11-22T11:16:38.339Z,101437.05
2018-11-22T11:21:32.948Z,101440.46
2018-11-22T11:26:27.588Z,101442.75
2018-11-22T11:31:22.282Z,101437.14
2018-11-22T11:36:17.856Z,101433.78
2018-11-22T11:41:11.542Z,101431.94
2018-11-22T11:46:06.324Z,101443.00
2018-11-22T11:51:01.130Z,101437.09
2018-11-22T11:55:55.781Z,101434.20
2018-11-22T12:00:50.423Z,101435.84
2018-11-22T12:05:45.592Z,101432.96
2018-11-22T12:10:40.206Z,101421.06
2018-11-22T12:15:34.884Z,101425.73
2018-11-22T12:20:29.503Z,101404.02
2018-11-22T12:25:25.406Z,101401.84
2018-11-22T12:30:21.474Z,101397.36
2018-11-22T12:35:33.959Z,101401.91
2018-11-22T12:40:28.971Z,101408.55
2018-11-22T12:45:23.781Z,101391.20
2018-11-22T12:50:18.430Z,101389.77
2018-11-22T12:55:13.282Z,101386.03
2018-11-22T13:00:14.246Z,101390.22
2018-11-22T13:05:11.181Z,101379.89
2018-11-22T13:10:12.126Z,101376.93
2018-11-22T13:15:09.319Z,101371.44
2018-11-22T13:20:04.304Z,101377.27
2018-11-22T13:24:59.052Z,101374.35
2018-11-22T13:29:53.842Z,101368.10
2018-11-22T13:34:48.704Z,101368.10
2018-11-22T13:39:43.352Z,101361.52
2018-11-22T13:44:37.999Z,101372.09
2018-11-22T13:49:34.412Z,101370.43
2018-11-22T13:54:29.090Z,101365.94
2018-11-22T13:59:23.830Z,101365.58
2018-11-22T14:04:18.608Z,101370.17
2018-11-22T14:09:13.311Z,101361.21
2018-11-22T14:14:07.956Z,101355.25
2018-11-22T14:19:02.739Z,101352.63
2018-11-22T14:23:57.408Z,101345.45
2018-11-22T14:28:52.026Z,101349.70
2018-11-22T14:33:46.661Z,101353.83
2018-11-22T14:38:41.296Z,101349.95
2018-11-22T14:43:35.934Z,101359.38
2018-11-22T14:48:30.545Z,101355.09
2018-11-22T14:53:25.335Z,101368.66
2018-11-22T14:58:19.961Z,101366.05
2018-11-22T15:03:14.689Z,101359.14
2018-11-22T15:08:09.316Z,101345.59
2018-11-22T15:13:04.021Z,101344.39
2018-11-22T15:17:58.821Z,101337.92
2018-11-22T15:22:54.151Z,101339.98
2018-11-22T15:27:48.834Z,101349.08
2018-11-22T15:32:43.479Z,101355.80
2018-11-22T15:37:40.936Z,101359.23
2018-11-22T15:42:35.639Z,101360.48
2018-11-22T15:47:30.353Z,101372.63
2018-11-22T15:52:25.244Z,101371.59
2018-11-22T15:57:20.055Z,101374.16
2018-11-22T16:02:14.703Z,101375.82
2018-11-22T16:07:09.609Z,101377.03
2018-11-22T16:12:04.700Z,101379.95
2018-11-22T16:16:59.320Z,101385.45
2018-11-22T16:21:54.018Z,101382.66
2018-11-22T16:26:48.672Z,101384.64
2018-11-22T16:31:43.428Z,101389.69
2018-11-22T16:36:38.048Z,101388.60
2018-11-22T16:41:32.712Z,101394.50
2018-11-22T16:46:27.540Z,101396.40
2018-11-22T16:51:22.225Z,101396.40
2018-11-22T16:56:16.921Z,101405.17
2018-11-22T17:01:11.564Z,101395.78
2018-11-22T17:06:06.759Z,101412.09
2018-11-22T17:11:02.318Z,101413.94
2018-11-22T17:15:56.231Z,101413.61
2018-11-22T17:20:51.030Z,101419.85
2018-11-22T17:25:45.535Z,101419.55
2018-11-22T17:30:41.579Z,101429.19
2018-11-22T17:35:36.548Z,101437.52
2018-11-22T17:40:32.907Z,101430.20
2018-11-22T17:45:31.510Z,101429.39
2018-11-22T17:50:28.791Z,101436.87
2018-11-22T17:55:24.898Z,101440.46
2018-11-22T18:00:24.817Z,101441.02
2018-11-22T18:05:19.459Z,101438.94
2018-11-22T18:10:19.492Z,101442.98
2018-11-22T18:15:15.554Z,101436.19
2018-11-22T18:20:18.749Z,101441.57
2018-11-22T18:25:15.075Z,101446.02
2018-11-22T18:30:21.496Z,101446.59
2018-11-22T18:35:16.385Z,101450.17
2018-11-22T18:40:40.359Z,101452.47
2018-11-22T18:45:45.518Z,101456.04
2018-11-22T18:50:40.770Z,101460.48
2018-11-22T18:55:35.412Z,101462.70
2018-11-22T19:00:34.181Z,101465.82
2018-11-22T19:05:28.956Z,101464.13
2018-11-22T19:10:25.143Z,101470.69
2018-11-22T19:15:21.274Z,101472.49
2018-11-22T19:20:21.936Z,101469.41
2018-11-22T19:25:17.073Z,101472.52
2018-11-22T19:30:17.543Z,101479.39
2018-11-22T19:35:13.146Z,101476.23
2018-11-22T19:40:39.221Z,101470.38
2018-11-22T19:45:38.135Z,101460.99
2018-11-22T19:50:33.402Z,101466.82
2018-11-22T19:55:29.535Z,101475.26
2018-11-22T20:00:25.157Z,101476.77
2018-11-22T20:05:20.829Z,101477.95
2018-11-22T20:10:35.659Z,101482.97
2018-11-22T20:15:30.520Z,101491.95
2018-11-22T20:20:25.889Z,101486.15
2018-11-22T20:25:20.572Z,101483.39
2018-11-22T20:30:28.691Z,101481.18
2018-11-22T20:35:23.869Z,101477.78
2018-11-22T20:40:19.987Z,101475.33
2018-11-22T20:45:16.555Z,101465.09
2018-11-22T20:50:14.274Z,101468.41
2018-11-22T20:55:18.800Z,101475.60
2018-11-22T21:00:24.848Z,101479.83
2018-11-22T21:06:12.244Z,101477.02
2018-11-22T21:11:10.051Z,101476.87
2018-11-22T21:16:07.981Z,101479.67
2018-11-22T21:21:05.756Z,101474.16
2018-11-22T21:26:03.551Z,101474.33
2018-11-22T21:31:01.320Z,101471.89
2018-11-22T21:35:59.224Z,101471.16
2018-11-22T21:40:57.138Z,101477.36
2018-11-22T21:45:55.143Z,101475.25
2018-11-22T21:50:52.914Z,101478.38
2018-11-22T21:55:50.663Z,101483.67
2018-11-22T22:00:48.443Z,101480.64
2018-11-22T22:05:46.351Z,101476.80
2018-11-22T22:10:44.158Z,101472.08
2018-11-22T22:15:41.908Z,101477.78
2018-11-22T22:20:39.881Z,101480.41
2018-11-22T22:25:37.654Z,101481.35
2018-11-22T22:30:36.180Z,101482.72
2018-11-22T22:35:34.029Z,101478.44
2018-11-22T22:40:32.860Z,101482.42
2018-11-22T22:45:31.751Z,101478.59
2018-11-22T22:50:30.468Z,101479.08
2018-11-22T22:55:28.663Z,101480.86
2018-11-22T23:00:48.594Z,101474.39
2018-11-22T23:05:46.405Z,101475.74
2018-11-22T23:10:44.287Z,101470.97
2018-11-22T23:15:42.260Z,101475.64
2018-11-22T23:20:42.126Z,101473.32
2018-11-22T23:25:40.094Z,101475.02
2018-11-22T23:30:38.317Z,101473.66
2018-11-22T23:35:36.438Z,101470.26
2018-11-22T23:40:35.498Z,101459.03
2018-11-22T23:45:34.456Z,101460.03
2018-11-22T23:50:33.480Z,101461.39
2018-11-22T23:55:31.695Z,101455.80
